Flight Track Log - Related Links

Times and Time Zones

All times are in EST time to prevent confusion due to time zone crossing. See the N789EX flight status page for this flight to view local times or setup timezone preferences in your user account.

Time Position Orientation Groundspeed Altitude Reporting Facility
EST Latitude Longitude Course Direction KTS MPH feet Rate Location/Type
01:19PM 47.3034 -120.1248 262° West  Level Estimated
01:20PM 47.3216 -120.2852 280° West  Level Estimated
01:21PM 47.3396 -120.4463 252° West  Level Estimated
01:21PM 47.2166 -120.3570 252° West 385 443 20,000  Level FlightAware ADS-B
01:22PM 47.1966 -120.4280 248° West 379 436 20,000  Level FlightAware ADS-B
01:22PM 47.1762 -120.5020 248° West 392 451 20,000  Level FlightAware ADS-B
01:23PM 47.1552 -120.5760 247° West 388 447 20,000  Level FlightAware ADS-B
01:23PM 47.1346 -120.6490 247° West 383 441 20,000  Level FlightAware ADS-B
01:24PM 47.1141 -120.7220 248° West 388 447 20,000  Level FlightAware ADS-B
01:24PM 47.0935 -120.7950 248° West 388 447 20,000  Level FlightAware ADS-B
01:25PM 47.0724 -120.8690 247° West 394 453 20,000  Level FlightAware ADS-B
01:25PM 47.0504 -120.9470 248° West 415 478 20,000  Level FlightAware ADS-B
01:26PM 47.0279 -121.0250 247° West 422 486 20,000  Level FlightAware ADS-B
01:26PM 47.0052 -121.1040 247° West 417 480 20,000  Level FlightAware ADS-B
01:27PM 46.9824 -121.1830 247° West 415 478 20,000  Level FlightAware ADS-B
01:27PM 46.9599 -121.2610 247° West 416 479 20,000  Level FlightAware ADS-B
01:28PM 46.9375 -121.3390 247° West 414 476 20,000  Level FlightAware ADS-B
01:28PM 46.9151 -121.4160 247° West 412 474 20,000  Level FlightAware ADS-B
01:29PM 46.8926 -121.4930 247° West 408 470 20,000  Level FlightAware ADS-B
01:29PM 46.8696 -121.5720 247° West 406 467 20,000  Level FlightAware ADS-B
01:30PM 46.8473 -121.6490 247° West 411 473 20,000  Level FlightAware ADS-B
01:30PM 46.8246 -121.7250 246° West 412 474 20,000  Level FlightAware ADS-B
01:31PM 46.8020 -121.8020 247° West 407 468 20,000  Level FlightAware ADS-B
01:31PM 46.7798 -121.8770 247° West 407 468 20,000  Level FlightAware ADS-B
01:32PM 46.7570 -121.9540 247° West 406 467 20,000  Level FlightAware ADS-B
01:33PM 46.7343 -122.0300 246° West 408 470 20,000  Level FlightAware ADS-B
01:33PM 46.7117 -122.1060 247° West 407 468 20,000  Level FlightAware ADS-B
01:34PM 46.6890 -122.1810 246° West 406 467 20,000  Level FlightAware ADS-B
01:34PM 46.6663 -122.2570 247° West 408 470 20,000  Level FlightAware ADS-B
01:35PM 46.6436 -122.3330 247° West 410 472 20,000  Level FlightAware ADS-B
01:35PM 46.6207 -122.4080 246° West 398 458 20,000  Level FlightAware ADS-B
01:36PM 46.5988 -122.4800 246° West 378 435 20,000  Level FlightAware ADS-B
01:36PM 46.5775 -122.5500 246° West 378 435 20,000  Level FlightAware ADS-B
01:37PM 46.5564 -122.6200 246° West 377 434 20,000  Level FlightAware ADS-B
01:37PM 46.5351 -122.6900 246° West 375 432 20,000  Level FlightAware ADS-B
01:38PM 46.5139 -122.7580 246° West 371 427 20,000  Level FlightAware ADS-B
01:38PM 46.4928 -122.8270 246° West 374 430 20,000  Level FlightAware ADS-B
01:39PM 46.4671 -122.9110 246° West 372 428 20,000  Level FlightAware ADS-B
01:39PM 46.4457 -122.9800 246° West 373 429 20,000  Level FlightAware ADS-B
01:40PM 46.4241 -123.0490 246° West 375 432 20,000  Level FlightAware ADS-B
01:40PM 46.4023 -123.1190 246° West 374 430 20,000  Level FlightAware ADS-B
01:41PM 46.3749 -123.2070 246° West 375 432 20,000  Level FlightAware ADS-B
01:41PM 46.3534 -123.2760 246° West 375 432 20,000  Level FlightAware ADS-B
01:42PM 46.3319 -123.3440 245° Southwest 373 429 20,000  Level FlightAware ADS-B
01:42PM 46.3103 -123.4130 246° West 373 429 20,000  Level FlightAware ADS-B
01:43PM 46.2884 -123.4820 245° Southwest 374 430 20,000  Level FlightAware ADS-B
01:43PM 46.2668 -123.5510 246° West 375 432 20,000  Level FlightAware ADS-B
01:44PM 46.2448 -123.6200 245° Southwest 375 432 20,000  Level FlightAware ADS-B
01:44PM 46.2228 -123.6890 245° Southwest 373 429 20,000 -295 Level FlightAware ADS-B
01:45PM 46.2012 -123.7570 245° Southwest 370 426 19,700 -1,222 Descending FlightAware ADS-B
01:45PM 46.1839 -123.8100 245° Southwest 368 423 18,900 -1,941 Descending FlightAware ADS-B
01:45PM 46.1740 -123.8310 236° Southwest 371 427 18,600 -1,667 Descending FlightAware ADS-B
01:46PM 46.1649 -123.8450 227° Southwest 375 432 18,400 -1,385 Descending FlightAware ADS-B
01:46PM 46.1587 -123.8530 222° Southwest 377 434 18,300 -1,875 Descending FlightAware ADS-B
01:46PM 46.1427 -123.8690 215° Southwest 385 443 17,900 -2,250 Descending FlightAware ADS-B
01:46PM 46.1347 -123.8750 207° Southwest 389 448 17,700 -2,308 Descending FlightAware ADS-B
01:46PM 46.1204 -123.8830 201° Southwest 396 456 17,400 -2,000 Descending FlightAware ADS-B
01:46PM 46.0971 -123.8890 190° South 402 463 17,000 -1,636 Descending FlightAware ADS-B
01:47PM 46.0409 -123.8950 184° South 400 460 16,200 -1,839 Descending FlightAware ADS-B
01:47PM 45.9851 -123.9010 184° South 390 449 15,100 -2,095 Descending FlightAware ADS-B
01:48PM 45.9270 -123.9070 184° South 387 445 14,000 -1,517 Descending FlightAware ADS-B
01:49PM 45.8525 -123.9164 184° South 383 441 12,900 -1,086 Descending Seattle Center
01:50PM 45.7506 -123.9286 185° South 371 427 11,900 -492 Descending Seattle Center
01:51PM 45.6486 -123.9414 185° South 305 351 11,900  Level Seattle Center
01:52PM 45.5678 -123.9514 185° South 294 338 11,900  Level Seattle Center
01:53PM 45.4878 -123.9592 184° South 290 334 11,900  Level Seattle Center
01:54PM 45.4078 -123.9672 184° South 288 331 11,900 -49 Level Seattle Center
01:55PM 45.3306 -123.9772 185° South 283 326 11,800 -443 Descending Seattle Center
01:56PM 45.2528 -123.9861 185° South 281 323 11,000 -393 Descending Seattle Center
01:57PM 45.1531 -123.9958 184° South 335 386 11,000  Level Seattle Center
01:58PM 45.0536 -124.0075 185° South 355 409 11,000  Level Seattle Center
01:59PM 44.9567 -124.0181 184° South 357 411 11,000 49 Level Seattle Center
02:00PM 44.8392 -124.0325 185° South 357 411 11,100 197 Climbing Seattle Center
02:01PM 44.7411 -124.0433 184° South 357 411 11,400 98 Climbing Seattle Center
02:02PM 44.6436 -124.0539 184° South 356 410 11,300 -49 Descending Seattle Center
02:03PM 44.5417 -124.0653 185° South 358 412 11,300  Level Seattle Center
02:04PM 44.4408 -124.0717 183° South 363 418 11,300  Level Seattle Center
02:05PM 44.3406 -124.0789 183° South 364 419 11,300  Level Seattle Center
02:06PM 44.2294 -124.0858 183° South 365 420 11,300  Level Seattle Center
02:07PM 44.1264 -124.0922 183° South 365 420 11,300  Level Seattle Center
02:08PM 44.0278 -124.0983 183° South 353 406 11,300  Level Seattle Center
02:09PM 43.9461 -124.1056 184° South 300 345 11,300  Level Seattle Center
02:10PM 43.8644 -124.1092 182° South 290 334 11,300  Level Seattle Center
02:11PM 43.7836 -124.1142 183° South 288 331 11,300  Level Seattle Center
02:12PM 43.7122 -124.1169 182° South 271 312 11,300  Level Seattle Center
02:13PM 43.6389 -124.1217 183° South 267 307 11,300  Level Seattle Center
02:14PM 43.5689 -124.1269 183° South 261 300 11,300  Level Seattle Center
02:15PM 43.5000 -124.1308 182° South 253 291 11,300  Level Seattle Center
02:16PM 43.4297 -124.1358 183° South 250 288 11,300  Level Seattle Center
02:17PM 43.3617 -124.1400 183° South 246 283 11,300  Level Seattle Center
02:18PM 43.2975 -124.1431 182° South 239 275 11,300 -49 Level Seattle Center
02:19PM 43.2264 -124.1508 185° South 254 292 11,200 -148 Descending Seattle Center
02:20PM 43.1389 -124.1558 182° South 309 356 11,000 -98 Descending Seattle Center
02:21PM 43.0489 -124.1606 182° South 321 369 11,000 -49 Level Seattle Center
02:22PM 42.9444 -124.1686 183° South 329 379 10,900  Descending Seattle Center
02:23PM 42.8608 -124.1728 182° South 304 350 11,000 49 Climbing Seattle Center
02:24PM 42.7814 -124.1789 183° South 290 334 11,000  Level Seattle Center
02:25PM 42.7036 -124.1811 181° South 279 321 11,000  Level Seattle Center
02:26PM 42.6300 -124.1861 183° South 267 307 11,000  Level Seattle Center
02:27PM 42.5561 -124.1911 183° South 267 307 11,000  Level Seattle Center
02:28PM 42.4889 -124.1953 183° South 245 282 11,000  Level Seattle Center
02:29PM 42.4106 -124.2006 183° South 234 269 11,000  Level Seattle Center
02:30PM 42.3444 -124.2050 183° South 236 272 11,000  Level Seattle Center
02:31PM 42.2792 -124.2092 183° South 237 273 11,000  Level Seattle Center
02:32PM 42.2094 -124.2144 183° South 253 291 11,000  Level Seattle Center
02:33PM 42.1189 -124.2183 182° South 319 367 11,000 -49 Level Seattle Center
02:35PM 42.0314 -124.2236 183° South 317 365 10,900  Descending Seattle Center
02:36PM 41.9536 -124.2283 183° South 277 319 11,000 49 Climbing Seattle Center
02:37PM 41.8811 -124.2331 183° South 261 300 11,000  Level Seattle Center
02:38PM 41.8056 -124.2381 183° South 267 307 11,000  Level Seattle Center
02:39PM 41.7325 -124.2408 182° South 265 305 11,000  Level Seattle Center
02:40PM 41.6606 -124.2381 178° South 262 302 11,000  Level Seattle Center
02:41PM 41.5947 -124.2394 181° South 244 281 11,000  Level Seattle Center
02:42PM 41.5136 -124.2378 179° South 242 278 11,000  Level Seattle Center
02:43PM 41.4508 -124.2375 180° South 233 268 11,000  Level Seattle Center
02:44PM 41.3917 -124.2364 179° South 220 253 11,000  Level Seattle Center
02:45PM 41.3347 -124.2372 181° South 209 241 11,000  Level Seattle Center
02:46PM 41.2778 -124.2361 179° South 206 237 11,000  Level Seattle Center
02:47PM 41.2200 -124.2356 180° South 206 237 11,000  Level Seattle Center
02:48PM 41.1628 -124.2361 180° South 207 238 11,000  Level Seattle Center
02:49PM 41.1050 -124.2358 180° South 207 238 11,000  Level Seattle Center
02:50PM 41.0478 -124.2369 181° South 207 238 11,000  Level Seattle Center
02:51PM 40.9911 -124.2361 179° South 205 236 11,000  Level Seattle Center
02:52PM 40.9344 -124.2361 180° South 205 236 11,000  Level Seattle Center
02:53PM 40.8675 -124.2356 180° South 203 234 11,000  Level Seattle Center
02:54PM 40.7944 -124.2369 181° South 243 280 11,000  Level Seattle Center
02:55PM 40.7119 -124.2411 182° South 278 320 11,000 -49 Level Seattle Center
02:56PM 40.6478 -124.2714 200° South 267 307 10,900  Descending Seattle Center
02:57PM 40.6908 -124.2842 347° North 237 273 11,000 49 Climbing Seattle Center
02:58PM 40.7497 -124.2658 13° North 228 262 11,000  Level Seattle Center
02:59PM 40.8089 -124.2611 North 219 252 11,000  Level Seattle Center
03:00PM 40.8611 -124.2658 356° North 204 235 11,000  Level Seattle Center
03:01PM 40.9094 -124.2669 359° North 188 216 11,000  Level Seattle Center
03:02PM 40.9567 -124.2656 North 178 205 11,000  Level Seattle Center
03:03PM 41.0006 -124.2642 North 168 193 11,000  Level Seattle Center
03:04PM 41.0506 -124.2617 North 156 180 11,000  Level Seattle Center
03:05PM 41.1028 -124.2617 360° North 184 212 11,000  Level Seattle Center
03:06PM 41.1689 -124.2653 358° North 220 253 11,000 -49 Level Seattle Center
03:07PM 41.2347 -124.2697 357° North 233 268 10,900  Descending Seattle Center
03:08PM 41.2942 -124.2681 North 221 254 11,000 49 Climbing Seattle Center
03:09PM 41.3533 -124.2628 North 212 244 11,000  Level Seattle Center
03:10PM 41.4094 -124.2600 North 207 238 11,000  Level Seattle Center
03:11PM 41.4611 -124.2561 North 192 221 11,000  Level Seattle Center
03:12PM 41.5136 -124.2517 North 189 217 11,000 -49 Level Seattle Center
03:13PM 41.5614 -124.2500 North 178 205 10,900  Descending Seattle Center
03:14PM 41.6142 -124.2475 North 163 188 11,000 49 Climbing Seattle Center
03:15PM 41.6572 -124.2458 North 156 180 11,000  Level Seattle Center
03:16PM 41.6981 -124.2422 North 150 173 11,000  Level Seattle Center
03:17PM 41.7353 -124.2428 359° North 138 159 11,000  Level Seattle Center
03:18PM 41.7886 -124.2481 356° North 190 219 11,000  Level Seattle Center
03:19PM 41.8486 -124.2586 353° North 216 249 11,000 -49 Level Seattle Center
03:20PM 41.9108 -124.2697 352° North 223 257 10,900  Descending Seattle Center
03:21PM 41.9697 -124.2700 360° North 218 251 11,000  Climbing Seattle Center
03:22PM 42.0269 -124.2586 North 210 242 10,900  Descending Seattle Center
03:23PM 42.0789 -124.2594 359° North 188 216 11,000 49 Climbing Seattle Center
03:24PM 42.1311 -124.2550 North 186 214 11,000  Level Seattle Center
03:25PM 42.1794 -124.2533 North 174 200 11,000  Level Seattle Center
03:26PM 42.2361 -124.2486 North 169 194 11,000  Level Seattle Center
03:27PM 42.2775 -124.2467 North 154 177 11,000  Level Seattle Center
03:28PM 42.3192 -124.2447 North 150 173 11,000  Level Seattle Center
03:29PM 42.3631 -124.2394 North 159 183 11,000  Level Seattle Center
03:30PM 42.4028 -124.2383 North 144 166 11,000  Level Seattle Center
03:32PM 42.4400 -124.2350 North 134 154 11,000  Level Seattle Center
03:33PM 42.4869 -124.2364 359° North 172 198 11,000  Level Seattle Center
03:34PM 42.5522 -124.2406 357° North 228 262 11,000  Level Seattle Center
03:35PM 42.6147 -124.2458 356° North 226 260 11,000  Level Seattle Center
03:36PM 42.6722 -124.2497 357° North 209 241 11,000  Level Seattle Center
03:37PM 42.7222 -124.2486 North 184 212 11,000 -98 Level Seattle Center
03:38PM 42.7736 -124.2461 North 184 212 10,800 -49 Descending Seattle Center
03:39PM 42.8303 -124.2419 North 171 197 10,900 49 Climbing Seattle Center
03:40PM 42.8742 -124.2403 North 159 183 10,900  Level Seattle Center
03:41PM 42.9131 -124.2361 North 144 166 10,900  Level Seattle Center
03:42PM 42.9514 -124.2297 North 141 162 10,900 -49 Level Seattle Center
03:43PM 42.9872 -124.2558 332° Northwest 163 188 10,800 -49 Descending Seattle Center
03:44PM 42.9331 -124.2658 188° South 223 257 10,800 49 Level Seattle Center
03:45PM 42.8869 -124.2667 181° South 183 211 10,900 49 Climbing Seattle Center
03:46PM 42.8419 -124.2631 177° South 165 190 10,900  Level Seattle Center
03:47PM 42.7950 -124.2603 178° South 169 194 10,900  Level Seattle Center
03:48PM 42.7464 -124.2578 178° South 172 198 10,900  Level Seattle Center
03:49PM 42.6986 -124.2536 176° South 173 199 10,900 49 Level Seattle Center
03:50PM 42.6417 -124.2500 177° South 172 198 11,000 49 Climbing Seattle Center
03:51PM 42.5769 -124.2522 181° South 231 266 11,000  Level Seattle Center
03:52PM 42.5094 -124.2536 181° South 241 277 11,000  Level Seattle Center
03:53PM 42.4414 -124.2514 179° South 244 281 11,000  Level Seattle Center
03:54PM 42.3750 -124.2517 180° South 240 276 11,000  Level Seattle Center
03:55PM 42.3081 -124.2483 178° South 239 275 11,000  Level Seattle Center
03:56PM 42.2417 -124.2472 179° South 240 276 11,000  Level Seattle Center
03:57PM 42.1758 -124.2439 178° South 239 275 11,000  Level Seattle Center
03:58PM 42.1097 -124.2447 181° South 237 273 11,000  Level Seattle Center
03:59PM 42.0431 -124.2425 179° South 239 275 11,000 639 Level Seattle Center
04:00PM 41.9836 -124.1922 148° Southeast 270 311 12,300 1,967 Climbing Seattle Center
04:01PM 41.9119 -124.1225 144° Southeast 265 305 15,000 2,164 Climbing Seattle Center
04:02PM 41.8497 -124.0625 144° Southeast 271 312 16,700 1,131 Climbing Seattle Center
04:03PM 41.7739 -123.9969 147° Southeast 315 362 17,300 492 Climbing Seattle Center
04:04PM 41.6822 -123.9153 146° Southeast 388 447 17,700 836 Climbing Seattle Center
04:05PM 41.5786 -123.8242 147° Southeast 434 499 19,000 590 Climbing Seattle Center
04:06PM 41.4736 -123.7286 146° Southeast 450 518 18,900  Descending Seattle Center
04:07PM 41.3681 -123.6367 147° Southeast 452 520 19,000 49 Climbing Seattle Center
04:08PM 41.2647 -123.5486 147° Southeast 445 512 19,000 -49 Level Seattle Center
04:09PM 41.1592 -123.4581 147° Southeast 449 517 18,900  Descending Seattle Center
04:10PM 41.0544 -123.3661 146° Southeast 451 519 19,000  Climbing Seattle Center
04:11PM 40.9478 -123.2742 147° Southeast 455 524 18,900  Descending Seattle Center
04:12PM 40.8333 -123.1744 147° Southeast 451 519 19,000 49 Climbing Seattle Center
04:13PM 40.7269 -123.0844 147° Southeast 454 522 19,000  Level Seattle Center
04:14PM 40.6208 -122.9936 147° Southeast 455 524 19,000  Level Seattle Center
04:15PM 40.5133 -122.9033 147° Southeast 455 524 19,000  Level Oakland Center
04:16PM 40.4083 -122.8136 147° Southeast 453 521 19,000  Level Oakland Center
04:17PM 40.3031 -122.7247 147° Southeast 453 521 19,000  Level Oakland Center
04:18PM 40.1769 -122.6189 147° Southeast 454 522 19,000  Level Oakland Center
04:19PM 40.0717 -122.5319 148° Southeast 454 522 19,000  Level Oakland Center
04:20PM 39.9678 -122.4439 147° Southeast 456 525 19,000  Level Oakland Center
04:21PM 39.8622 -122.3572 148° Southeast 455 524 19,000  Level Oakland Center
04:22PM 39.7572 -122.2700 147° Southeast 452 520 19,000 -829 Level Oakland Center
04:23PM 39.6322 -122.1667 148° Southeast 447 514 17,300 -1,707 Descending Oakland Center
04:24PM 39.5319 -122.0844 148° Southeast 432 497 15,500 -1,122 Descending Oakland Center
04:26PM 39.4439 -122.0128 148° Southeast 423 487 15,000 -246 Descending Oakland Center
04:27PM 39.3442 -121.9328 148° Southeast 422 486 15,000  Level Oakland Center
04:28PM 39.2244 -121.8350 148° Southeast 425 489 15,000 -1,024 Level Oakland Center
04:29PM 39.1272 -121.7536 147° Southeast 421 484 12,900 -1,854 Descending Oakland Center
04:30PM 39.0447 -121.6744 143° Southeast 378 435 11,200 -1,464 Descending Oakland Center
04:33PM 38.8588 -121.3450 143° Southeast 218 251 5,800 -1,262 Descending FlightAware ADS-B (KMHR)
04:36PM 38.7467 -121.1515 127° Southeast 209 241 2,700 -861 Descending FlightAware ADS-B (KMHR)
04:37PM 38.7172 -121.1223 142° Southeast 209 241 2,700  Level FlightAware ADS-B (KMHR)
04:37PM 38.7004 -121.1076 146° Southeast 201 231 2,700 -158 Level FlightAware ADS-B (KMHR)
04:38PM 38.6879 -121.1015 159° South 186 214 2,600 -300 Descending FlightAware ADS-B (KMHR)
04:38PM 38.6677 -121.1092 197° South 186 214 2,500 -171 Descending FlightAware ADS-B (KMHR)
04:38PM 38.6599 -121.1145 208° Southwest 182 209 2,500 367 Level FlightAware ADS-B (KMHR)
04:39PM 38.6414 -121.1450 208° Southwest 185 213 2,800 -371 Climbing Oakland Center
04:40PM 38.6147 -121.1914 234° Southwest 175 201 1,900 -878 Descending Oakland Center
04:41PM 38.5875 -121.2397 234° Southwest 171 197 1,000 -878 Descending Oakland Center
04:42PM 38.5600 -121.2861 233° Southwest 166 191 100 -439 Descending Oakland Center
04:43PM 38.5469 -121.3114 237° Southwest 109 125 100  Level Oakland Center
04:44PM 38.5422 -121.3167 221° Southwest 80 92 100  Level Oakland Center

Login

Don't have an account? Register now (free) for customized features, flight alerts, and more!